Bluefields Airport
MNBL : now visible

Airfield :











YOU CAN JOIN US ON...

 
LOGIN :

Register | Disclaimer

   EN    FR    IT 

 









Legend :    VFR   Marginal VFR   IFR   Intensive IFR   Very Intensive IFR
Visi :
Ceiling :
>= 8 km
>= 3000ft
5 to 8 km
1000 to 3000 ft
1500m to 5 km
500 to 1000 ft
800 to 1500m
200 to 500 ft
< 800m
< 200 ft
Symbols :   Thunderstorms  Fog  Heavy snow  Heavy precipitations  Wind > 20 kt






- Airport Elevation : 20 ft
- IATA code : BEF


MNBL - Bluefields

CURRENT METAR :
  • 212100Z 02004KT 9999 FEW020 SCT080 29/22 Q1012

EXPIRED METARs :
  • 212000Z 02004KT 9999 SCT018 BKN080 28/23 Q1013
  • 211900Z 36004KT 9999 SCT018 BKN080 28/23 Q1013

TAF MNBL
Valid from the 21 at 18:00 until the 22 at 18:00 UTC


211530Z 2118/2218 34014KT 9999 SCT017 SCT060
TEMPO 2119/2203 7000 -RA BKN019



MET'MAP, your aeronautical weather chart ! - Copyright ORBIFLY December 2007 - Disclaimer

ORBIFLY MET'MAP TEAM :

Programming & Development : Alexandra Zaïnal
Concept & original design : Baudouin d'Aumeries
Assistance for programming : Marc-Olivier Méhu
Technical & hardware support : Manuel Goepfert

Contact : metmap@orbifly.com




SOURCES & CREDITS :

   NOAA       Earth
Advisory